sensor_id;sensor_type;location;lat;lon;timestamp;P1;durP1;ratioP1;P2;durP2;ratioP2
71196;SDS011;58918;51.652;4.864;2023-05-07T00:00:06;2.25;;;0.85;;
71196;SDS011;58918;51.652;4.864;2023-05-07T00:02:35;8.80;;;0.95;;
71196;SDS011;58918;51.652;4.864;2023-05-07T00:05:03;2.50;;;0.90;;
71196;SDS011;58918;51.652;4.864;2023-05-07T00:07:31;4.60;;;0.95;;
71196;SDS011;58918;51.652;4.864;2023-05-07T00:09:58;4.30;;;0.80;;
71196;SDS011;58918;51.652;4.864;2023-05-07T00:12:25;3.45;;;1.08;;
71196;SDS011;58918;51.652;4.864;2023-05-07T00:14:52;3.15;;;0.88;;
71196;SDS011;58918;51.652;4.864;2023-05-07T00:17:19;2.67;;;0.90;;
71196;SDS011;58918;51.652;4.864;2023-05-07T00:19:46;3.22;;;1.05;;
71196;SDS011;58918;51.652;4.864;2023-05-07T00:22:14;3.97;;;1.20;;
71196;SDS011;58918;51.652;4.864;2023-05-07T00:24:41;2.83;;;0.80;;
71196;SDS011;58918;51.652;4.864;2023-05-07T00:27:08;3.40;;;1.00;;
71196;SDS011;58918;51.652;4.864;2023-05-07T00:29:36;2.70;;;0.85;;
71196;SDS011;58918;51.652;4.864;2023-05-07T00:32:03;3.83;;;1.10;;
71196;SDS011;58918;51.652;4.864;2023-05-07T00:34:30;3.42;;;0.90;;
71196;SDS011;58918;51.652;4.864;2023-05-07T00:36:57;3.50;;;1.10;;
71196;SDS011;58918;51.652;4.864;2023-05-07T00:39:25;6.05;;;0.90;;
71196;SDS011;58918;51.652;4.864;2023-05-07T00:41:52;3.55;;;0.82;;
71196;SDS011;58918;51.652;4.864;2023-05-07T00:44:19;2.55;;;0.80;;
71196;SDS011;58918;51.652;4.864;2023-05-07T00:46:46;3.20;;;0.90;;
71196;SDS011;58918;51.652;4.864;2023-05-07T00:49:16;2.60;;;0.88;;
71196;SDS011;58918;51.652;4.864;2023-05-07T00:51:43;2.40;;;0.70;;
71196;SDS011;58918;51.652;4.864;2023-05-07T00:54:11;2.28;;;0.80;;
71196;SDS011;58918;51.652;4.864;2023-05-07T00:56:38;3.42;;;0.80;;
71196;SDS011;58918;51.652;4.864;2023-05-07T00:59:05;3.42;;;0.90;;
71196;SDS011;58918;51.652;4.864;2023-05-07T01:01:33;2.33;;;0.90;;
71196;SDS011;58918;51.652;4.864;2023-05-07T01:04:00;3.38;;;0.90;;
71196;SDS011;58918;51.652;4.864;2023-05-07T01:06:28;2.15;;;0.90;;
71196;SDS011;58918;51.652;4.864;2023-05-07T01:08:56;2.90;;;0.90;;
71196;SDS011;58918;51.652;4.864;2023-05-07T01:11:23;2.80;;;0.90;;
71196;SDS011;58918;51.652;4.864;2023-05-07T01:13:51;3.17;;;0.88;;
71196;SDS011;58918;51.652;4.864;2023-05-07T01:16:19;2.05;;;0.75;;
71196;SDS011;58918;51.652;4.864;2023-05-07T01:18:46;2.95;;;0.90;;
71196;SDS011;58918;51.652;4.864;2023-05-07T01:21:15;2.20;;;0.90;;
71196;SDS011;58918;51.652;4.864;2023-05-07T01:23:44;3.67;;;1.10;;
71196;SDS011;58918;51.652;4.864;2023-05-07T01:26:11;5.18;;;1.10;;
71196;SDS011;58918;51.652;4.864;2023-05-07T01:28:38;2.30;;;0.85;;
71196;SDS011;58918;51.652;4.864;2023-05-07T01:31:05;4.20;;;0.95;;
71196;SDS011;58918;51.652;4.864;2023-05-07T01:33:33;2.60;;;0.90;;
71196;SDS011;58918;51.652;4.864;2023-05-07T01:36:01;7.90;;;0.80;;
71196;SDS011;58918;51.652;4.864;2023-05-07T01:38:32;3.30;;;1.25;;
71196;SDS011;58918;51.652;4.864;2023-05-07T01:40:59;3.13;;;0.80;;
71196;SDS011;58918;51.652;4.864;2023-05-07T01:43:26;3.65;;;0.93;;
71196;SDS011;58918;51.652;4.864;2023-05-07T01:45:54;3.60;;;1.00;;
71196;SDS011;58918;51.652;4.864;2023-05-07T01:48:22;6.53;;;1.00;;
71196;SDS011;58918;51.652;4.864;2023-05-07T01:50:49;2.42;;;0.80;;
71196;SDS011;58918;51.652;4.864;2023-05-07T01:53:17;2.10;;;0.80;;
71196;SDS011;58918;51.652;4.864;2023-05-07T01:55:44;3.28;;;1.00;;
71196;SDS011;58918;51.652;4.864;2023-05-07T01:58:11;2.85;;;0.90;;
71196;SDS011;58918;51.652;4.864;2023-05-07T02:00:39;3.13;;;0.80;;
71196;SDS011;58918;51.652;4.864;2023-05-07T02:03:06;2.05;;;0.80;;
71196;SDS011;58918;51.652;4.864;2023-05-07T02:05:34;2.55;;;0.90;;
71196;SDS011;58918;51.652;4.864;2023-05-07T02:08:01;4.07;;;1.10;;
71196;SDS011;58918;51.652;4.864;2023-05-07T02:10:28;3.90;;;0.90;;
71196;SDS011;58918;51.652;4.864;2023-05-07T02:12:55;2.67;;;0.98;;
71196;SDS011;58918;51.652;4.864;2023-05-07T02:15:23;4.80;;;1.00;;
71196;SDS011;58918;51.652;4.864;2023-05-07T02:18:03;3.13;;;0.70;;
71196;SDS011;58918;51.652;4.864;2023-05-07T02:22:58;2.55;;;0.93;;
71196;SDS011;58918;51.652;4.864;2023-05-07T02:25:25;2.20;;;0.73;;
71196;SDS011;58918;51.652;4.864;2023-05-07T02:27:52;2.83;;;0.80;;
71196;SDS011;58918;51.652;4.864;2023-05-07T02:30:19;2.20;;;0.80;;
71196;SDS011;58918;51.652;4.864;2023-05-07T02:32:47;2.88;;;0.88;;
71196;SDS011;58918;51.652;4.864;2023-05-07T02:35:15;2.53;;;0.80;;
71196;SDS011;58918;51.652;4.864;2023-05-07T02:37:42;2.65;;;0.85;;
71196;SDS011;58918;51.652;4.864;2023-05-07T02:40:09;2.45;;;0.93;;
71196;SDS011;58918;51.652;4.864;2023-05-07T02:42:37;2.15;;;0.88;;
71196;SDS011;58918;51.652;4.864;2023-05-07T02:45:05;4.10;;;1.00;;
71196;SDS011;58918;51.652;4.864;2023-05-07T02:47:32;3.22;;;0.88;;
71196;SDS011;58918;51.652;4.864;2023-05-07T02:49:59;1.80;;;0.70;;
71196;SDS011;58918;51.652;4.864;2023-05-07T02:52:26;2.70;;;0.80;;
71196;SDS011;58918;51.652;4.864;2023-05-07T02:54:53;1.65;;;0.70;;
71196;SDS011;58918;51.652;4.864;2023-05-07T02:57:21;2.85;;;0.80;;
71196;SDS011;58918;51.652;4.864;2023-05-07T02:59:48;4.05;;;1.10;;
71196;SDS011;58918;51.652;4.864;2023-05-07T03:02:15;3.85;;;1.02;;
71196;SDS011;58918;51.652;4.864;2023-05-07T03:04:42;3.00;;;0.90;;
71196;SDS011;58918;51.652;4.864;2023-05-07T03:07:09;15.50;;;1.75;;
71196;SDS011;58918;51.652;4.864;2023-05-07T03:09:36;2.30;;;0.80;;
71196;SDS011;58918;51.652;4.864;2023-05-07T03:12:04;2.28;;;0.93;;
71196;SDS011;58918;51.652;4.864;2023-05-07T03:14:31;4.05;;;1.00;;
71196;SDS011;58918;51.652;4.864;2023-05-07T03:16:58;6.75;;;1.02;;
71196;SDS011;58918;51.652;4.864;2023-05-07T03:19:25;2.30;;;0.80;;
71196;SDS011;58918;51.652;4.864;2023-05-07T03:21:53;2.63;;;0.90;;
71196;SDS011;58918;51.652;4.864;2023-05-07T03:24:20;2.42;;;0.90;;
71196;SDS011;58918;51.652;4.864;2023-05-07T03:26:47;3.08;;;1.00;;
71196;SDS011;58918;51.652;4.864;2023-05-07T03:29:14;2.90;;;0.90;;
71196;SDS011;58918;51.652;4.864;2023-05-07T03:31:42;2.55;;;0.90;;
71196;SDS011;58918;51.652;4.864;2023-05-07T03:34:09;2.55;;;0.90;;
71196;SDS011;58918;51.652;4.864;2023-05-07T03:36:37;5.82;;;0.80;;
71196;SDS011;58918;51.652;4.864;2023-05-07T03:39:04;2.08;;;0.93;;
71196;SDS011;58918;51.652;4.864;2023-05-07T03:41:32;2.80;;;0.80;;
71196;SDS011;58918;51.652;4.864;2023-05-07T03:43:59;2.45;;;0.80;;
71196;SDS011;58918;51.652;4.864;2023-05-07T03:46:26;2.55;;;0.80;;
71196;SDS011;58918;51.652;4.864;2023-05-07T03:48:54;3.13;;;0.80;;
71196;SDS011;58918;51.652;4.864;2023-05-07T03:51:21;2.13;;;0.82;;
71196;SDS011;58918;51.652;4.864;2023-05-07T03:53:49;1.85;;;0.60;;
71196;SDS011;58918;51.652;4.864;2023-05-07T03:56:19;2.10;;;0.80;;
71196;SDS011;58918;51.652;4.864;2023-05-07T03:58:47;2.70;;;1.00;;
71196;SDS011;58918;51.652;4.864;2023-05-07T04:01:14;3.35;;;1.27;;
71196;SDS011;58918;51.652;4.864;2023-05-07T04:03:42;4.53;;;0.95;;
71196;SDS011;58918;51.652;4.864;2023-05-07T04:06:09;1.98;;;0.80;;
71196;SDS011;58918;51.652;4.864;2023-05-07T04:08:36;3.45;;;0.90;;
71196;SDS011;58918;51.652;4.864;2023-05-07T04:11:03;2.58;;;0.90;;
71196;SDS011;58918;51.652;4.864;2023-05-07T04:13:31;2.72;;;1.00;;
71196;SDS011;58918;51.652;4.864;2023-05-07T04:15:58;2.55;;;0.80;;
71196;SDS011;58918;51.652;4.864;2023-05-07T04:18:25;2.40;;;0.95;;
71196;SDS011;58918;51.652;4.864;2023-05-07T04:20:52;3.72;;;1.00;;
71196;SDS011;58918;51.652;4.864;2023-05-07T04:23:19;3.05;;;0.90;;
71196;SDS011;58918;51.652;4.864;2023-05-07T04:25:47;4.80;;;0.93;;
71196;SDS011;58918;51.652;4.864;2023-05-07T04:28:14;2.25;;;0.75;;
71196;SDS011;58918;51.652;4.864;2023-05-07T04:30:41;2.38;;;0.80;;
71196;SDS011;58918;51.652;4.864;2023-05-07T04:33:08;3.45;;;0.90;;
71196;SDS011;58918;51.652;4.864;2023-05-07T04:35:35;3.42;;;0.73;;
71196;SDS011;58918;51.652;4.864;2023-05-07T04:38:03;2.58;;;0.80;;
71196;SDS011;58918;51.652;4.864;2023-05-07T04:40:30;1.80;;;0.80;;
71196;SDS011;58918;51.652;4.864;2023-05-07T04:42:57;2.38;;;0.80;;
71196;SDS011;58918;51.652;4.864;2023-05-07T04:45:24;2.28;;;0.73;;
71196;SDS011;58918;51.652;4.864;2023-05-07T04:47:51;2.58;;;0.70;;
71196;SDS011;58918;51.652;4.864;2023-05-07T04:50:18;4.63;;;1.00;;
71196;SDS011;58918;51.652;4.864;2023-05-07T04:52:46;2.58;;;0.90;;
71196;SDS011;58918;51.652;4.864;2023-05-07T04:55:13;4.20;;;0.93;;
71196;SDS011;58918;51.652;4.864;2023-05-07T04:57:41;2.85;;;0.90;;
71196;SDS011;58918;51.652;4.864;2023-05-07T05:00:08;3.30;;;0.90;;
71196;SDS011;58918;51.652;4.864;2023-05-07T05:02:35;2.78;;;0.95;;
71196;SDS011;58918;51.652;4.864;2023-05-07T05:05:03;4.70;;;0.90;;
71196;SDS011;58918;51.652;4.864;2023-05-07T05:07:30;2.30;;;0.80;;
71196;SDS011;58918;51.652;4.864;2023-05-07T05:09:57;2.13;;;0.70;;
71196;SDS011;58918;51.652;4.864;2023-05-07T05:12:24;2.83;;;0.80;;
71196;SDS011;58918;51.652;4.864;2023-05-07T05:14:52;3.97;;;0.80;;
71196;SDS011;58918;51.652;4.864;2023-05-07T05:17:19;3.97;;;0.95;;
71196;SDS011;58918;51.652;4.864;2023-05-07T05:19:46;11.25;;;1.13;;
71196;SDS011;58918;51.652;4.864;2023-05-07T05:22:13;6.05;;;1.40;;
71196;SDS011;58918;51.652;4.864;2023-05-07T05:24:41;10.98;;;1.17;;
71196;SDS011;58918;51.652;4.864;2023-05-07T05:27:08;8.05;;;1.50;;
71196;SDS011;58918;51.652;4.864;2023-05-07T05:29:35;9.63;;;1.23;;
71196;SDS011;58918;51.652;4.864;2023-05-07T05:32:02;8.18;;;1.20;;
71196;SDS011;58918;51.652;4.864;2023-05-07T05:34:30;5.63;;;1.10;;
71196;SDS011;58918;51.652;4.864;2023-05-07T05:36:59;3.88;;;0.90;;
71196;SDS011;58918;51.652;4.864;2023-05-07T05:39:26;2.90;;;1.10;;
71196;SDS011;58918;51.652;4.864;2023-05-07T05:41:53;2.35;;;0.90;;
71196;SDS011;58918;51.652;4.864;2023-05-07T05:44:20;4.25;;;1.00;;
71196;SDS011;58918;51.652;4.864;2023-05-07T05:46:48;4.35;;;0.90;;
71196;SDS011;58918;51.652;4.864;2023-05-07T05:49:16;3.45;;;1.20;;
71196;SDS011;58918;51.652;4.864;2023-05-07T05:51:43;3.20;;;1.15;;
71196;SDS011;58918;51.652;4.864;2023-05-07T05:54:10;4.13;;;1.30;;
71196;SDS011;58918;51.652;4.864;2023-05-07T05:56:37;2.85;;;1.05;;
71196;SDS011;58918;51.652;4.864;2023-05-07T05:59:04;5.60;;;1.10;;
71196;SDS011;58918;51.652;4.864;2023-05-07T06:01:32;4.82;;;1.13;;
71196;SDS011;58918;51.652;4.864;2023-05-07T06:03:59;5.75;;;1.15;;
71196;SDS011;58918;51.652;4.864;2023-05-07T06:06:26;4.82;;;1.27;;
71196;SDS011;58918;51.652;4.864;2023-05-07T06:08:54;3.85;;;1.40;;
71196;SDS011;58918;51.652;4.864;2023-05-07T06:11:21;3.80;;;1.20;;
71196;SDS011;58918;51.652;4.864;2023-05-07T06:13:48;3.08;;;1.10;;
71196;SDS011;58918;51.652;4.864;2023-05-07T06:16:16;3.95;;;1.20;;
71196;SDS011;58918;51.652;4.864;2023-05-07T06:18:43;4.97;;;1.20;;
71196;SDS011;58918;51.652;4.864;2023-05-07T06:23:40;3.10;;;1.10;;
71196;SDS011;58918;51.652;4.864;2023-05-07T06:26:07;3.80;;;1.40;;
71196;SDS011;58918;51.652;4.864;2023-05-07T06:28:34;5.03;;;1.52;;
71196;SDS011;58918;51.652;4.864;2023-05-07T06:31:14;3.53;;;1.30;;
71196;SDS011;58918;51.652;4.864;2023-05-07T06:33:42;3.30;;;1.23;;
71196;SDS011;58918;51.652;4.864;2023-05-07T06:36:10;5.00;;;1.70;;
71196;SDS011;58918;51.652;4.864;2023-05-07T06:38:37;4.57;;;1.50;;
71196;SDS011;58918;51.652;4.864;2023-05-07T06:41:05;4.57;;;1.40;;
71196;SDS011;58918;51.652;4.864;2023-05-07T06:43:33;4.35;;;1.50;;
71196;SDS011;58918;51.652;4.864;2023-05-07T06:46:00;3.88;;;1.35;;
71196;SDS011;58918;51.652;4.864;2023-05-07T06:48:27;5.03;;;1.52;;
71196;SDS011;58918;51.652;4.864;2023-05-07T06:50:54;5.22;;;1.52;;
71196;SDS011;58918;51.652;4.864;2023-05-07T06:53:23;3.92;;;1.33;;
71196;SDS011;58918;51.652;4.864;2023-05-07T06:55:52;3.63;;;1.30;;
71196;SDS011;58918;51.652;4.864;2023-05-07T06:58:19;6.40;;;1.75;;
71196;SDS011;58918;51.652;4.864;2023-05-07T07:00:46;2.90;;;1.10;;
71196;SDS011;58918;51.652;4.864;2023-05-07T07:03:13;4.43;;;1.30;;
71196;SDS011;58918;51.652;4.864;2023-05-07T07:05:41;5.25;;;1.55;;
71196;SDS011;58918;51.652;4.864;2023-05-07T07:08:08;4.65;;;1.70;;
71196;SDS011;58918;51.652;4.864;2023-05-07T07:10:35;3.28;;;1.35;;
71196;SDS011;58918;51.652;4.864;2023-05-07T07:13:02;3.10;;;1.17;;
71196;SDS011;58918;51.652;4.864;2023-05-07T07:15:29;3.75;;;1.40;;
71196;SDS011;58918;51.652;4.864;2023-05-07T07:17:56;5.78;;;1.10;;
71196;SDS011;58918;51.652;4.864;2023-05-07T07:20:24;3.30;;;1.30;;
71196;SDS011;58918;51.652;4.864;2023-05-07T07:22:51;2.60;;;1.13;;
71196;SDS011;58918;51.652;4.864;2023-05-07T07:25:18;4.78;;;1.42;;
71196;SDS011;58918;51.652;4.864;2023-05-07T07:27:45;4.68;;;1.30;;
71196;SDS011;58918;51.652;4.864;2023-05-07T07:30:12;4.03;;;1.33;;
71196;SDS011;58918;51.652;4.864;2023-05-07T07:32:40;3.00;;;1.20;;
71196;SDS011;58918;51.652;4.864;2023-05-07T07:35:07;3.80;;;1.40;;
71196;SDS011;58918;51.652;4.864;2023-05-07T07:37:34;4.32;;;1.63;;
71196;SDS011;58918;51.652;4.864;2023-05-07T07:40:01;4.00;;;1.23;;
71196;SDS011;58918;51.652;4.864;2023-05-07T07:42:29;3.40;;;1.52;;
71196;SDS011;58918;51.652;4.864;2023-05-07T07:44:57;3.20;;;1.20;;
71196;SDS011;58918;51.652;4.864;2023-05-07T07:47:24;5.03;;;1.52;;
71196;SDS011;58918;51.652;4.864;2023-05-07T07:49:51;3.17;;;1.23;;
71196;SDS011;58918;51.652;4.864;2023-05-07T07:52:18;3.63;;;1.25;;
71196;SDS011;58918;51.652;4.864;2023-05-07T07:54:46;3.55;;;1.30;;
71196;SDS011;58918;51.652;4.864;2023-05-07T07:57:13;3.28;;;1.25;;
71196;SDS011;58918;51.652;4.864;2023-05-07T07:59:40;3.35;;;1.42;;
71196;SDS011;58918;51.652;4.864;2023-05-07T08:04:36;3.95;;;1.20;;
71196;SDS011;58918;51.652;4.864;2023-05-07T08:07:04;3.88;;;1.50;;
71196;SDS011;58918;51.652;4.864;2023-05-07T08:09:31;4.50;;;1.42;;
71196;SDS011;58918;51.652;4.864;2023-05-07T08:11:59;3.28;;;1.38;;
71196;SDS011;58918;51.652;4.864;2023-05-07T08:14:27;3.28;;;1.50;;
71196;SDS011;58918;51.652;4.864;2023-05-07T08:16:54;4.00;;;1.50;;
71196;SDS011;58918;51.652;4.864;2023-05-07T08:19:22;3.83;;;1.50;;
71196;SDS011;58918;51.652;4.864;2023-05-07T08:21:49;2.88;;;1.20;;
71196;SDS011;58918;51.652;4.864;2023-05-07T08:24:17;3.45;;;1.30;;
71196;SDS011;58918;51.652;4.864;2023-05-07T08:26:44;3.90;;;1.20;;
71196;SDS011;58918;51.652;4.864;2023-05-07T08:29:13;3.22;;;1.33;;
71196;SDS011;58918;51.652;4.864;2023-05-07T08:31:40;4.32;;;1.25;;
71196;SDS011;58918;51.652;4.864;2023-05-07T08:34:07;4.55;;;1.42;;
71196;SDS011;58918;51.652;4.864;2023-05-07T08:36:35;4.45;;;1.38;;
71196;SDS011;58918;51.652;4.864;2023-05-07T08:39:02;3.17;;;1.23;;
71196;SDS011;58918;51.652;4.864;2023-05-07T08:41:30;3.30;;;1.23;;
71196;SDS011;58918;51.652;4.864;2023-05-07T08:43:57;3.65;;;1.52;;
71196;SDS011;58918;51.652;4.864;2023-05-07T08:46:26;3.33;;;1.30;;
71196;SDS011;58918;51.652;4.864;2023-05-07T08:48:55;3.45;;;1.40;;
71196;SDS011;58918;51.652;4.864;2023-05-07T08:51:23;3.78;;;1.52;;
71196;SDS011;58918;51.652;4.864;2023-05-07T08:53:50;3.15;;;1.30;;
71196;SDS011;58918;51.652;4.864;2023-05-07T08:56:17;3.08;;;1.20;;
71196;SDS011;58918;51.652;4.864;2023-05-07T08:58:47;4.03;;;1.25;;
71196;SDS011;58918;51.652;4.864;2023-05-07T09:01:15;3.30;;;1.30;;
71196;SDS011;58918;51.652;4.864;2023-05-07T09:03:44;4.93;;;1.60;;
71196;SDS011;58918;51.652;4.864;2023-05-07T09:06:11;4.38;;;1.50;;
71196;SDS011;58918;51.652;4.864;2023-05-07T09:08:38;3.65;;;1.35;;
71196;SDS011;58918;51.652;4.864;2023-05-07T09:11:07;3.70;;;1.38;;
71196;SDS011;58918;51.652;4.864;2023-05-07T09:13:36;3.30;;;1.17;;
71196;SDS011;58918;51.652;4.864;2023-05-07T09:16:11;3.17;;;1.30;;
71196;SDS011;58918;51.652;4.864;2023-05-07T09:18:44;4.32;;;1.63;;
71196;SDS011;58918;51.652;4.864;2023-05-07T09:21:14;3.28;;;1.48;;
71196;SDS011;58918;51.652;4.864;2023-05-07T09:23:42;3.88;;;1.52;;
71196;SDS011;58918;51.652;4.864;2023-05-07T09:26:09;4.63;;;2.03;;
71196;SDS011;58918;51.652;4.864;2023-05-07T09:28:41;5.05;;;1.70;;
71196;SDS011;58918;51.652;4.864;2023-05-07T09:31:09;4.20;;;1.98;;
71196;SDS011;58918;51.652;4.864;2023-05-07T09:33:36;4.32;;;1.80;;
71196;SDS011;58918;51.652;4.864;2023-05-07T09:36:07;5.93;;;2.40;;
71196;SDS011;58918;51.652;4.864;2023-05-07T09:38:35;5.22;;;1.90;;
71196;SDS011;58918;51.652;4.864;2023-05-07T09:41:09;3.60;;;1.65;;
71196;SDS011;58918;51.652;4.864;2023-05-07T09:43:37;4.47;;;1.80;;
71196;SDS011;58918;51.652;4.864;2023-05-07T09:48:38;4.43;;;1.50;;
71196;SDS011;58918;51.652;4.864;2023-05-07T09:51:08;3.80;;;1.42;;
71196;SDS011;58918;51.652;4.864;2023-05-07T09:53:37;4.72;;;1.50;;
71196;SDS011;58918;51.652;4.864;2023-05-07T09:56:04;3.75;;;1.70;;
71196;SDS011;58918;51.652;4.864;2023-05-07T09:58:32;3.65;;;1.40;;
71196;SDS011;58918;51.652;4.864;2023-05-07T10:01:00;3.60;;;1.48;;
71196;SDS011;58918;51.652;4.864;2023-05-07T10:03:28;4.85;;;1.70;;
71196;SDS011;58918;51.652;4.864;2023-05-07T10:05:56;5.47;;;1.70;;
71196;SDS011;58918;51.652;4.864;2023-05-07T10:08:24;4.25;;;1.55;;
71196;SDS011;58918;51.652;4.864;2023-05-07T10:10:52;4.35;;;1.80;;
71196;SDS011;58918;51.652;4.864;2023-05-07T10:13:19;5.32;;;1.75;;
71196;SDS011;58918;51.652;4.864;2023-05-07T10:15:47;5.13;;;2.00;;
71196;SDS011;58918;51.652;4.864;2023-05-07T10:18:14;4.93;;;2.00;;
71196;SDS011;58918;51.652;4.864;2023-05-07T10:20:43;4.63;;;1.60;;
71196;SDS011;58918;51.652;4.864;2023-05-07T10:23:12;5.55;;;1.50;;
71196;SDS011;58918;51.652;4.864;2023-05-07T10:25:40;3.42;;;1.52;;
71196;SDS011;58918;51.652;4.864;2023-05-07T10:28:10;4.25;;;1.73;;
71196;SDS011;58918;51.652;4.864;2023-05-07T10:33:06;3.70;;;1.60;;
71196;SDS011;58918;51.652;4.864;2023-05-07T10:35:37;3.30;;;1.45;;
71196;SDS011;58918;51.652;4.864;2023-05-07T10:38:06;3.85;;;1.67;;
71196;SDS011;58918;51.652;4.864;2023-05-07T10:40:34;4.13;;;1.40;;
71196;SDS011;58918;51.652;4.864;2023-05-07T10:43:02;4.35;;;1.60;;
71196;SDS011;58918;51.652;4.864;2023-05-07T10:45:34;3.97;;;1.50;;
71196;SDS011;58918;51.652;4.864;2023-05-07T10:48:09;4.88;;;1.80;;
71196;SDS011;58918;51.652;4.864;2023-05-07T10:51:18;3.85;;;1.65;;
71196;SDS011;58918;51.652;4.864;2023-05-07T10:53:41;6.00;;;1.73;;
71196;SDS011;58918;51.652;4.864;2023-05-07T10:56:29;3.78;;;1.63;;
71196;SDS011;58918;51.652;4.864;2023-05-07T10:58:56;3.70;;;1.63;;
71196;SDS011;58918;51.652;4.864;2023-05-07T11:01:50;3.45;;;1.58;;
71196;SDS011;58918;51.652;4.864;2023-05-07T11:15:08;4.80;;;1.50;;
71196;SDS011;58918;51.652;4.864;2023-05-07T11:17:52;4.35;;;1.33;;
71196;SDS011;58918;51.652;4.864;2023-05-07T11:20:20;3.70;;;1.52;;
71196;SDS011;58918;51.652;4.864;2023-05-07T11:22:47;5.10;;;1.42;;
71196;SDS011;58918;51.652;4.864;2023-05-07T11:25:18;6.13;;;1.60;;
71196;SDS011;58918;51.652;4.864;2023-05-07T11:27:45;4.25;;;1.60;;
71196;SDS011;58918;51.652;4.864;2023-05-07T11:30:19;4.07;;;1.50;;
71196;SDS011;58918;51.652;4.864;2023-05-07T11:32:47;3.65;;;1.75;;
71196;SDS011;58918;51.652;4.864;2023-05-07T11:37:42;3.20;;;1.40;;
71196;SDS011;58918;51.652;4.864;2023-05-07T11:40:09;4.40;;;1.35;;
71196;SDS011;58918;51.652;4.864;2023-05-07T11:42:40;3.15;;;1.23;;
71196;SDS011;58918;51.652;4.864;2023-05-07T11:45:10;4.55;;;1.52;;
71196;SDS011;58918;51.652;4.864;2023-05-07T11:47:38;5.47;;;1.63;;
71196;SDS011;58918;51.652;4.864;2023-05-07T11:50:08;3.38;;;1.50;;
71196;SDS011;58918;51.652;4.864;2023-05-07T11:55:06;4.32;;;1.60;;
71196;SDS011;58918;51.652;4.864;2023-05-07T11:57:34;3.15;;;1.40;;
71196;SDS011;58918;51.652;4.864;2023-05-07T12:00:02;3.28;;;1.30;;
71196;SDS011;58918;51.652;4.864;2023-05-07T12:02:30;5.35;;;1.60;;
71196;SDS011;58918;51.652;4.864;2023-05-07T12:05:00;3.55;;;1.20;;
71196;SDS011;58918;51.652;4.864;2023-05-07T12:07:28;4.85;;;1.90;;
71196;SDS011;58918;51.652;4.864;2023-05-07T12:09:55;3.17;;;1.40;;
71196;SDS011;58918;51.652;4.864;2023-05-07T12:12:23;3.80;;;1.55;;
71196;SDS011;58918;51.652;4.864;2023-05-07T12:14:50;3.85;;;1.40;;
71196;SDS011;58918;51.652;4.864;2023-05-07T12:17:17;3.92;;;1.40;;
71196;SDS011;58918;51.652;4.864;2023-05-07T12:19:44;3.22;;;1.40;;
71196;SDS011;58918;51.652;4.864;2023-05-07T12:22:12;4.18;;;2.10;;
71196;SDS011;58918;51.652;4.864;2023-05-07T12:24:46;3.67;;;1.48;;
71196;SDS011;58918;51.652;4.864;2023-05-07T12:27:14;3.88;;;1.30;;
71196;SDS011;58918;51.652;4.864;2023-05-07T12:29:46;4.47;;;1.33;;
71196;SDS011;58918;51.652;4.864;2023-05-07T12:32:14;3.35;;;1.40;;
71196;SDS011;58918;51.652;4.864;2023-05-07T12:34:42;4.25;;;1.55;;
71196;SDS011;58918;51.652;4.864;2023-05-07T12:37:11;4.07;;;1.42;;
71196;SDS011;58918;51.652;4.864;2023-05-07T12:39:44;4.18;;;1.40;;
71196;SDS011;58918;51.652;4.864;2023-05-07T12:42:14;3.53;;;1.50;;
71196;SDS011;58918;51.652;4.864;2023-05-07T12:44:44;3.33;;;1.40;;
71196;SDS011;58918;51.652;4.864;2023-05-07T12:47:12;3.92;;;1.50;;
71196;SDS011;58918;51.652;4.864;2023-05-07T12:49:39;3.25;;;1.30;;
71196;SDS011;58918;51.652;4.864;2023-05-07T12:52:07;3.22;;;1.40;;
71196;SDS011;58918;51.652;4.864;2023-05-07T12:54:37;4.57;;;1.60;;
71196;SDS011;58918;51.652;4.864;2023-05-07T12:57:05;3.78;;;1.27;;
71196;SDS011;58918;51.652;4.864;2023-05-07T13:02:00;3.30;;;1.33;;
71196;SDS011;58918;51.652;4.864;2023-05-07T13:04:28;4.40;;;1.55;;
71196;SDS011;58918;51.652;4.864;2023-05-07T13:06:55;3.58;;;1.30;;
71196;SDS011;58918;51.652;4.864;2023-05-07T13:09:22;4.10;;;1.58;;
71196;SDS011;58918;51.652;4.864;2023-05-07T13:11:50;3.08;;;1.23;;
71196;SDS011;58918;51.652;4.864;2023-05-07T13:14:17;3.40;;;1.70;;
71196;SDS011;58918;51.652;4.864;2023-05-07T13:16:47;3.63;;;1.30;;
71196;SDS011;58918;51.652;4.864;2023-05-07T13:19:15;3.65;;;1.50;;
71196;SDS011;58918;51.652;4.864;2023-05-07T13:21:43;3.17;;;1.30;;
71196;SDS011;58918;51.652;4.864;2023-05-07T13:24:10;6.30;;;1.73;;
71196;SDS011;58918;51.652;4.864;2023-05-07T13:26:37;4.45;;;1.52;;
71196;SDS011;58918;51.652;4.864;2023-05-07T13:29:05;4.32;;;1.38;;
71196;SDS011;58918;51.652;4.864;2023-05-07T13:31:32;3.60;;;1.27;;
71196;SDS011;58918;51.652;4.864;2023-05-07T13:34:00;5.25;;;1.48;;
71196;SDS011;58918;51.652;4.864;2023-05-07T13:36:27;8.38;;;1.60;;
71196;SDS011;58918;51.652;4.864;2023-05-07T13:38:54;3.40;;;1.20;;
71196;SDS011;58918;51.652;4.864;2023-05-07T13:41:21;4.50;;;1.42;;
71196;SDS011;58918;51.652;4.864;2023-05-07T13:43:48;3.55;;;1.20;;
71196;SDS011;58918;51.652;4.864;2023-05-07T13:46:16;4.00;;;1.58;;
71196;SDS011;58918;51.652;4.864;2023-05-07T13:48:43;5.97;;;1.58;;
71196;SDS011;58918;51.652;4.864;2023-05-07T13:51:10;4.60;;;1.13;;
71196;SDS011;58918;51.652;4.864;2023-05-07T13:53:37;5.88;;;1.70;;
71196;SDS011;58918;51.652;4.864;2023-05-07T13:56:04;6.82;;;1.60;;
71196;SDS011;58918;51.652;4.864;2023-05-07T13:58:32;5.68;;;1.48;;
71196;SDS011;58918;51.652;4.864;2023-05-07T14:01:01;6.35;;;1.50;;
71196;SDS011;58918;51.652;4.864;2023-05-07T14:03:28;5.68;;;1.58;;
71196;SDS011;58918;51.652;4.864;2023-05-07T14:05:58;4.10;;;1.33;;
71196;SDS011;58918;51.652;4.864;2023-05-07T14:08:26;4.95;;;1.50;;
71196;SDS011;58918;51.652;4.864;2023-05-07T14:10:57;3.63;;;1.40;;
71196;SDS011;58918;51.652;4.864;2023-05-07T14:13:24;6.25;;;1.52;;
71196;SDS011;58918;51.652;4.864;2023-05-07T14:15:51;5.18;;;1.55;;
71196;SDS011;58918;51.652;4.864;2023-05-07T14:18:19;6.57;;;1.48;;
71196;SDS011;58918;51.652;4.864;2023-05-07T14:20:46;3.28;;;1.15;;
71196;SDS011;58918;51.652;4.864;2023-05-07T14:23:14;3.60;;;1.20;;
71196;SDS011;58918;51.652;4.864;2023-05-07T14:25:43;5.68;;;1.92;;
71196;SDS011;58918;51.652;4.864;2023-05-07T14:28:12;5.45;;;1.42;;
71196;SDS011;58918;51.652;4.864;2023-05-07T14:30:39;5.47;;;1.40;;
71196;SDS011;58918;51.652;4.864;2023-05-07T14:33:06;4.45;;;1.42;;
71196;SDS011;58918;51.652;4.864;2023-05-07T14:35:33;5.55;;;1.45;;
71196;SDS011;58918;51.652;4.864;2023-05-07T14:38:01;7.55;;;1.85;;
71196;SDS011;58918;51.652;4.864;2023-05-07T14:40:29;8.95;;;2.30;;
71196;SDS011;58918;51.652;4.864;2023-05-07T14:42:56;6.57;;;1.67;;
71196;SDS011;58918;51.652;4.864;2023-05-07T14:45:23;6.80;;;1.85;;
71196;SDS011;58918;51.652;4.864;2023-05-07T14:47:51;7.40;;;2.15;;
71196;SDS011;58918;51.652;4.864;2023-05-07T14:50:18;12.70;;;2.58;;
71196;SDS011;58918;51.652;4.864;2023-05-07T14:52:45;10.40;;;2.40;;
71196;SDS011;58918;51.652;4.864;2023-05-07T14:55:13;10.75;;;2.70;;
71196;SDS011;58918;51.652;4.864;2023-05-07T14:57:40;15.35;;;3.42;;
71196;SDS011;58918;51.652;4.864;2023-05-07T15:00:07;15.02;;;3.03;;
71196;SDS011;58918;51.652;4.864;2023-05-07T15:02:35;14.90;;;3.08;;
71196;SDS011;58918;51.652;4.864;2023-05-07T15:05:03;12.52;;;3.63;;
71196;SDS011;58918;51.652;4.864;2023-05-07T15:07:30;15.52;;;4.20;;
71196;SDS011;58918;51.652;4.864;2023-05-07T15:10:00;14.25;;;4.25;;
71196;SDS011;58918;51.652;4.864;2023-05-07T15:12:27;12.45;;;3.38;;
71196;SDS011;58918;51.652;4.864;2023-05-07T15:14:55;20.70;;;4.38;;
71196;SDS011;58918;51.652;4.864;2023-05-07T15:17:22;20.38;;;4.88;;
71196;SDS011;58918;51.652;4.864;2023-05-07T15:19:49;18.15;;;4.13;;
71196;SDS011;58918;51.652;4.864;2023-05-07T15:22:19;15.15;;;4.60;;